Enter the Airport ICAO Code

Search by Airport or City

Current Weather

ZGGG | Guangzhou Baiyun International Airport

Guangzhou, Guangdong, China

Last Update 26 Minutes Ago

Mostly Cloudy Sky

Temperature of 26 ºC

Light Winds from East

Temperature

26 ºC

Dew Point Temperature

24 ºC

Relative Humidity

88.82 %

Wind Direction

East (080º, Ranging from 050º to 110º)

Wind Velocity

7 km/h (2 kt)

Gusts

None

Visibility

Greater than 10 Kilometers

Sea Level Pressure

1013 hPa (Hectopascals)

Layers of Clouds

60% to 90% of Sky Covered from 1311 mts (4300 ft) Above Ground Level.

METAR ZGGG 121400Z 08002MPS 050V110 9999 BKN043 26/24 Q1013 NOSIG

Weather Forecast

ZGGG | Guangzhou Baiyun International Airport

Guangzhou, Guangdong, China

Forecast valid for the next 22 Hours

From now on it is expected:

Mostly Cloudy Sky

Light to Moderate Winds from SouthEast

In 4 hours it is expected the begining of 6 hours with intermittent periods of:

Rain

In 10 hours it is expected the begining of 6 hours with intermittent periods of:

Thunderstorm with Rain

In 16 hours it is expected the begining of 6 hours with intermittent periods of:

Thunderstorm with Rain

Maximum Temperature

32 ºC in 17 Hours

Minimum Temperature

26 ºC in 8 Hours

TAF ZGGG 120913Z 1212/1312 15004MPS 8000 BKN033 TX32/1307Z TN26/1222Z TEMPO 1218/1224 3500 SHRA SCT011 FEW030CB BKN033 TEMPO 1300/1306 2500 TSRA SCT011 SCT030CB BKN033 TEMPO 1306/1312 2500 TSRA SCT011 SCT030CB BKN033